Relevés horaires Beauvechain (Belgique)


Relevés horaires à Beauvechain - Mardi 02 Juin 2020
Heure UTC1 Température [°C] Vent [km/h] Hum. [%] Pres.4 [hPa] Visi. [Km] Nébu. [octa] Préc.5 [mm] Cond.
2m. Res. Ros. Dir.2 Vit. Moy. Raf.3
23:00 15.6 15.6 9.3 NNO 1.9 -- 3.7 66 1012.1(-1.1/3h) 20 -- -- --
22:00 17.3 17.3 8.7 NNO 1.9 -- 3.7 57 1012.5(-0.7/3h) 20 6/8 -- --
21:00 18.0 18.0 8.4 NNO 1.9 -- 14.8 53 1013(-0.4/3h) 20 6/8 -- --
20:00 19.1 19.1 7.2 ONO 5.6 -- 13.0 46 1013.1(-0.3/3h) 20 6/8 -- --
19:00 21.3 21.3 6.2 NO 9.3 -- 14.8 37 1013.1(-0.5/3h) 20 6/8 -- --
18:00 23.1 23.1 7.6 NNO 9.3 -- 16.7 37 1013.1(-0.9/3h) 20 6/8 -- --
17:00 24.7 24.7 8.5 NNO 9.3 -- 14.8 36 1013.1(-1.6/3h) 20 5/8 -- --
16:00 26.6 26.6 8.2 NO 5.6 -- 9.3 31 1013.2(-1.9/3h) 20 4/8 -- --
15:00 26.9 26.9 7.1 NNO 1.9 -- 7.4 28 1013.8(-2.0/3h) 20 4/8 -- --
14:00 27.5 27.5 7.9 O 3.7 -- 7.4 29 1014.6(-1.8/3h) 20 4/8 -- --
12:00 26.1 26.1 7.3 NNO 1.9 -- 7.4 30 1016(-1.6/3h) 20 4/8 -- --
11:00 25.0 25.0 7.7 NNO 1.9 -- 7.4 33 1016.6(-1.4/3h) 20 3/8 -- --
10:00 24.5 24.5 9.0 NNO 1.9 -- 7.4 37 1017.2(-0.9/3h) 20 3/8 -- --
09:00 23.1 23.1 8.6 NNO 1.9 -- 5.6 40 1017.7(-0.6/3h) 20 3/8 -- --
08:00 20.6 20.6 9.4 NNO 1.9 -- 3.7 49 1018.2(-0.2/3h) 20 5/8 -- --
07:00 18.1 18.1 8.4 NNO 1.9 -- 3.7 53 1018.6(0.0/3h) 20 5/8 -- --
06:00 15.6 15.6 8.3 NNO 1.9 -- 5.6 62 1018.7(0.2/3h) 20 4/8 -- --
05:00 13.3 13.3 6.3 NNO 1.9 -- 5.6 63 1018.8(-0.1/3h) 20 3/8 -- --
04:00 13.1 13.1 5.2 NNO 1.9 -- 1.9 59 1018.7(-0.5/3h) 20 -- -- --
03:00 15.2 15.2 4.4 NNO 1.9 -- 3.7 48 1018.6(-0.9/3h) 20 -- -- --
02:00 15.8 15.8 4.4 NNO 1.9 -- 3.7 47 1018.8(-0.9/3h) 20 -- -- --
01:00 15.5 15.5 4.4 NNO 1.9 -- 1.9 47 1019.2(-0.5/3h) 20 -- -- --
00:00 17.1 17.1 4.0 NNO 1.9 -- 11.1 42 1019.3(-0.1/3h) 20 -- -- --

1 Coordinated Universal Time. Actuellement il est 14:00 locale et 12:00 UTC.

2 Le vent souffle depuis la direction indiquée vers la direction oposée.

3 Les rafales max. sont disponible 40 min après l'heure du relevé.

4 Pour les stations d'altitude (plus de 600m) le géopotentiel du niveau le plus proche de la pression obligatoire est indiqué.

5 Les stations disposant d'un diffuseur peuvent indiquer "trace". Cela signifie que des précipitations ont touchés le sol mais que la quantité est inférieure à 0.1 mm.

Récapitulatif de la journée
Température [°C] Vent [km/h] Ensoleillement4 [h] Precipitations totale5 [mm] Pression [Hpa]
Min1 Max.2 Moy.3 Max. Min Max.
11.7 27.9 0 16.7 0 h 0 min 0 1012.1 1019.3

1 Température minimale relevée entre 18:00 UTC la veille et 18:00 UTC le jour donné.

2 Température maximale relevée entre 06:00 UTC le jour donné et 06:00 UTC le lendemain.

3 Vent moyen de la journée basé sur les relevés horaires.

4 Ensoleillement en heures relevé entre 06:00 UTC la veille et 06:00 UTC le jour donné.

5 Précipitations totales tombées entre 06:00 UTC la jour donné et 06:00 UTC le lendemain.

Graphiques horaires